sensor_id;sensor_type;location;lat;lon;timestamp;pressure;altitude;pressure_sealevel;temperature;humidity
64230;BME280;50547;49.498;0.092;2022-12-18T00:01:35;1017;;;-1.15;80.96
64230;BME280;50547;49.498;0.092;2022-12-18T00:04:06;1017;;;-1.06;80.51
64230;BME280;50547;49.498;0.092;2022-12-18T00:06:35;1017;;;-1.01;80.27
64230;BME280;50547;49.498;0.092;2022-12-18T00:09:05;1017;;;-0.97;80.18
64230;BME280;50547;49.498;0.092;2022-12-18T00:11:34;1017;;;-0.93;80.05
64230;BME280;50547;49.498;0.092;2022-12-18T00:14:03;1017;;;-0.97;80.24
64230;BME280;50547;49.498;0.092;2022-12-18T00:16:32;1017;;;-0.97;80.35
64230;BME280;50547;49.498;0.092;2022-12-18T00:19:03;1017;;;-0.97;80.32
64230;BME280;50547;49.498;0.092;2022-12-18T00:21:33;1017;;;-0.96;80.31
64230;BME280;50547;49.498;0.092;2022-12-18T00:24:03;1017;;;-0.94;80.21
64230;BME280;50547;49.498;0.092;2022-12-18T00:26:33;1017;;;-0.87;79.86
64230;BME280;50547;49.498;0.092;2022-12-18T00:29:05;1017;;;-0.88;79.86
64230;BME280;50547;49.498;0.092;2022-12-18T00:31:36;1017;;;-0.85;79.75
64230;BME280;50547;49.498;0.092;2022-12-18T00:34:08;1017;;;-0.80;79.50
64230;BME280;50547;49.498;0.092;2022-12-18T00:36:39;1017;;;-0.84;79.66
64230;BME280;50547;49.498;0.092;2022-12-18T00:39:10;1017;;;-0.83;79.63
64230;BME280;50547;49.498;0.092;2022-12-18T00:41:40;1017;;;-0.78;79.42
64230;BME280;50547;49.498;0.092;2022-12-18T00:44:11;1017;;;-0.84;79.63
64230;BME280;50547;49.498;0.092;2022-12-18T00:46:42;1017;;;-0.86;79.66
64230;BME280;50547;49.498;0.092;2022-12-18T00:49:11;1017;;;-0.87;79.70
64230;BME280;50547;49.498;0.092;2022-12-18T00:51:40;1017;;;-0.92;79.85
64230;BME280;50547;49.498;0.092;2022-12-18T00:54:10;1017;;;-0.91;79.83
64230;BME280;50547;49.498;0.092;2022-12-18T00:56:39;1017;;;-0.91;79.86
64230;BME280;50547;49.498;0.092;2022-12-18T00:59:09;1017;;;-0.97;80.13
64230;BME280;50547;49.498;0.092;2022-12-18T01:01:38;1017;;;-0.98;80.27
64230;BME280;50547;49.498;0.092;2022-12-18T01:04:07;1017;;;-0.94;80.28
64230;BME280;50547;49.498;0.092;2022-12-18T01:06:36;1017;;;-0.98;80.40
64230;BME280;50547;49.498;0.092;2022-12-18T01:09:05;1017;;;-0.98;80.38
64230;BME280;50547;49.498;0.092;2022-12-18T01:11:35;1017;;;-0.94;80.11
64230;BME280;50547;49.498;0.092;2022-12-18T01:14:04;1017;;;-0.97;80.23
64230;BME280;50547;49.498;0.092;2022-12-18T01:16:33;1017;;;-0.97;80.26
64230;BME280;50547;49.498;0.092;2022-12-18T01:19:03;1017;;;-1.06;80.59
64230;BME280;50547;49.498;0.092;2022-12-18T01:21:32;1017;;;-1.12;80.81
64230;BME280;50547;49.498;0.092;2022-12-18T01:24:02;1016;;;-1.10;80.59
64230;BME280;50547;49.498;0.092;2022-12-18T01:26:31;1017;;;-1.07;80.45
64230;BME280;50547;49.498;0.092;2022-12-18T01:29:00;1017;;;-1.05;80.32
64230;BME280;50547;49.498;0.092;2022-12-18T01:31:32;1016;;;-1.04;80.28
64230;BME280;50547;49.498;0.092;2022-12-18T01:34:03;1016;;;-1.15;80.81
64230;BME280;50547;49.498;0.092;2022-12-18T01:36:34;1016;;;-1.15;80.78
64230;BME280;50547;49.498;0.092;2022-12-18T01:39:09;1016;;;-1.14;80.71
64230;BME280;50547;49.498;0.092;2022-12-18T01:41:39;1016;;;-1.10;80.47
64230;BME280;50547;49.498;0.092;2022-12-18T01:44:55;1016;;;-1.20;80.86
64230;BME280;50547;49.498;0.092;2022-12-18T01:47:30;1016;;;-1.13;80.65
64230;BME280;50547;49.498;0.092;2022-12-18T01:50:03;1016;;;-1.15;80.78
64230;BME280;50547;49.498;0.092;2022-12-18T01:52:33;1016;;;-1.17;80.79
64230;BME280;50547;49.498;0.092;2022-12-18T01:55:05;1016;;;-1.11;80.49
64230;BME280;50547;49.498;0.092;2022-12-18T01:57:36;1016;;;-1.11;80.52
64230;BME280;50547;49.498;0.092;2022-12-18T02:00:09;1016;;;-1.04;80.27
64230;BME280;50547;49.498;0.092;2022-12-18T02:02:40;1016;;;-1.11;80.50
64230;BME280;50547;49.498;0.092;2022-12-18T02:05:10;1016;;;-0.94;79.89
64230;BME280;50547;49.498;0.092;2022-12-18T02:07:45;1016;;;-0.99;80.14
64230;BME280;50547;49.498;0.092;2022-12-18T02:10:21;1016;;;-0.91;79.89
64230;BME280;50547;49.498;0.092;2022-12-18T02:12:57;1016;;;-0.96;80.05
64230;BME280;50547;49.498;0.092;2022-12-18T02:15:36;1016;;;-0.94;79.90
64230;BME280;50547;49.498;0.092;2022-12-18T02:18:11;1017;;;-0.92;79.78
64230;BME280;50547;49.498;0.092;2022-12-18T02:20:45;1017;;;-0.79;79.27
64230;BME280;50547;49.498;0.092;2022-12-18T02:23:31;1017;;;-0.68;78.89
64230;BME280;50547;49.498;0.092;2022-12-18T02:26:13;1017;;;-0.75;79.22
64230;BME280;50547;49.498;0.092;2022-12-18T02:28:46;1017;;;-0.82;79.41
64230;BME280;50547;49.498;0.092;2022-12-18T02:31:21;1017;;;-0.78;79.09
64230;BME280;50547;49.498;0.092;2022-12-18T02:33:55;1017;;;-0.69;78.83
64230;BME280;50547;49.498;0.092;2022-12-18T02:36:27;1017;;;-0.68;78.79
64230;BME280;50547;49.498;0.092;2022-12-18T02:38:58;1016;;;-0.66;78.64
64230;BME280;50547;49.498;0.092;2022-12-18T02:41:30;1016;;;-0.70;78.74
64230;BME280;50547;49.498;0.092;2022-12-18T02:44:08;1016;;;-0.75;78.94
64230;BME280;50547;49.498;0.092;2022-12-18T02:46:40;1016;;;-0.79;79.05
64230;BME280;50547;49.498;0.092;2022-12-18T02:49:20;1016;;;-0.83;79.18
64230;BME280;50547;49.498;0.092;2022-12-18T02:51:53;1016;;;-0.80;78.97
64230;BME280;50547;49.498;0.092;2022-12-18T02:54:36;1016;;;-0.87;79.21
64230;BME280;50547;49.498;0.092;2022-12-18T02:57:14;1016;;;-0.94;79.44
64230;BME280;50547;49.498;0.092;2022-12-18T02:59:55;1016;;;-0.79;78.79
64230;BME280;50547;49.498;0.092;2022-12-18T03:02:32;1016;;;-0.75;78.71
64230;BME280;50547;49.498;0.092;2022-12-18T03:05:10;1016;;;-0.88;79.27
64230;BME280;50547;49.498;0.092;2022-12-18T03:07:46;1016;;;-0.84;79.03
64230;BME280;50547;49.498;0.092;2022-12-18T03:10:20;1016;;;-0.94;79.49
64230;BME280;50547;49.498;0.092;2022-12-18T03:12:58;1016;;;-0.88;79.27
64230;BME280;50547;49.498;0.092;2022-12-18T03:15:34;1016;;;-0.86;79.09
64230;BME280;50547;49.498;0.092;2022-12-18T03:18:07;1016;;;-0.79;78.89
64230;BME280;50547;49.498;0.092;2022-12-18T03:20:39;1016;;;-0.85;79.14
64230;BME280;50547;49.498;0.092;2022-12-18T03:23:22;1016;;;-0.84;79.24
64230;BME280;50547;49.498;0.092;2022-12-18T03:25:55;1016;;;-0.86;79.25
64230;BME280;50547;49.498;0.092;2022-12-18T03:28:28;1016;;;-0.76;78.82
64230;BME280;50547;49.498;0.092;2022-12-18T03:31:01;1016;;;-0.75;78.75
64230;BME280;50547;49.498;0.092;2022-12-18T03:33:37;1016;;;-0.76;78.70
64230;BME280;50547;49.498;0.092;2022-12-18T03:36:08;1016;;;-0.68;78.41
64230;BME280;50547;49.498;0.092;2022-12-18T03:38:37;1016;;;-0.63;78.21
64230;BME280;50547;49.498;0.092;2022-12-18T03:41:13;1016;;;-0.82;78.82
64230;BME280;50547;49.498;0.092;2022-12-18T03:43:49;1016;;;-0.96;79.21
64230;BME280;50547;49.498;0.092;2022-12-18T03:46:26;1016;;;-0.99;79.22
64230;BME280;50547;49.498;0.092;2022-12-18T03:49:01;1016;;;-1.02;79.23
64230;BME280;50547;49.498;0.092;2022-12-18T03:51:36;1016;;;-1.06;79.31
64230;BME280;50547;49.498;0.092;2022-12-18T03:54:09;1016;;;-1.06;79.14
64230;BME280;50547;49.498;0.092;2022-12-18T03:56:43;1016;;;-1.06;79.03
64230;BME280;50547;49.498;0.092;2022-12-18T03:59:15;1016;;;-1.01;78.81
64230;BME280;50547;49.498;0.092;2022-12-18T04:01:47;1015;;;-1.08;78.97
64230;BME280;50547;49.498;0.092;2022-12-18T04:04:19;1015;;;-1.12;79.18
64230;BME280;50547;49.498;0.092;2022-12-18T04:06:50;1015;;;-1.23;79.44
64230;BME280;50547;49.498;0.092;2022-12-18T04:09:20;1015;;;-1.28;79.63
64230;BME280;50547;49.498;0.092;2022-12-18T04:11:51;1015;;;-1.22;79.26
64230;BME280;50547;49.498;0.092;2022-12-18T04:14:20;1015;;;-1.14;78.92
64230;BME280;50547;49.498;0.092;2022-12-18T04:16:50;1015;;;-1.18;79.02
64230;BME280;50547;49.498;0.092;2022-12-18T04:19:19;1015;;;-1.15;78.88
64230;BME280;50547;49.498;0.092;2022-12-18T04:21:48;1015;;;-1.20;79.04
64230;BME280;50547;49.498;0.092;2022-12-18T04:24:17;1015;;;-1.12;78.81
64230;BME280;50547;49.498;0.092;2022-12-18T04:26:46;1015;;;-0.94;78.07
64230;BME280;50547;49.498;0.092;2022-12-18T04:29:16;1015;;;-0.91;77.85
64230;BME280;50547;49.498;0.092;2022-12-18T04:31:45;1016;;;-0.87;77.69
64230;BME280;50547;49.498;0.092;2022-12-18T04:34:14;1015;;;-0.89;77.73
64230;BME280;50547;49.498;0.092;2022-12-18T04:36:43;1015;;;-0.87;77.56
64230;BME280;50547;49.498;0.092;2022-12-18T04:39:13;1015;;;-1.03;78.00
64230;BME280;50547;49.498;0.092;2022-12-18T04:41:42;1015;;;-1.11;78.20
64230;BME280;50547;49.498;0.092;2022-12-18T04:44:11;1016;;;-1.19;78.41
64230;BME280;50547;49.498;0.092;2022-12-18T04:46:40;1016;;;-1.12;77.98
64230;BME280;50547;49.498;0.092;2022-12-18T04:49:10;1016;;;-0.99;77.24
64230;BME280;50547;49.498;0.092;2022-12-18T04:51:39;1016;;;-0.80;76.55
64230;BME280;50547;49.498;0.092;2022-12-18T04:54:08;1016;;;-0.77;76.43
64230;BME280;50547;49.498;0.092;2022-12-18T04:56:37;1016;;;-0.77;76.46
64230;BME280;50547;49.498;0.092;2022-12-18T04:59:06;1016;;;-0.73;76.37
64230;BME280;50547;49.498;0.092;2022-12-18T05:01:35;1016;;;-0.68;76.22
64230;BME280;50547;49.498;0.092;2022-12-18T05:04:05;1016;;;-0.70;76.29
64230;BME280;50547;49.498;0.092;2022-12-18T05:06:34;1016;;;-0.77;76.66
64230;BME280;50547;49.498;0.092;2022-12-18T05:09:03;1016;;;-0.83;76.94
64230;BME280;50547;49.498;0.092;2022-12-18T05:11:33;1016;;;-0.84;76.91
64230;BME280;50547;49.498;0.092;2022-12-18T05:14:02;1016;;;-0.83;76.77
64230;BME280;50547;49.498;0.092;2022-12-18T05:16:31;1016;;;-0.67;76.12
64230;BME280;50547;49.498;0.092;2022-12-18T05:19:00;1016;;;-0.63;75.95
64230;BME280;50547;49.498;0.092;2022-12-18T05:21:30;1016;;;-0.66;76.11
64230;BME280;50547;49.498;0.092;2022-12-18T05:23:59;1016;;;-0.79;76.62
64230;BME280;50547;49.498;0.092;2022-12-18T05:26:28;1016;;;-0.86;76.90
64230;BME280;50547;49.498;0.092;2022-12-18T05:28:57;1016;;;-0.93;77.14
64230;BME280;50547;49.498;0.092;2022-12-18T05:31:24;1016;;;-0.85;76.83
64230;BME280;50547;49.498;0.092;2022-12-18T05:33:53;1016;;;-0.86;76.86
64230;BME280;50547;49.498;0.092;2022-12-18T05:36:23;1016;;;-0.85;76.90
64230;BME280;50547;49.498;0.092;2022-12-18T05:38:52;1016;;;-0.83;76.83
64230;BME280;50547;49.498;0.092;2022-12-18T05:41:22;1016;;;-0.87;76.98
64230;BME280;50547;49.498;0.092;2022-12-18T05:43:51;1016;;;-0.85;76.97
64230;BME280;50547;49.498;0.092;2022-12-18T05:46:21;1016;;;-0.87;77.09
64230;BME280;50547;49.498;0.092;2022-12-18T05:48:50;1015;;;-0.84;76.97
64230;BME280;50547;49.498;0.092;2022-12-18T05:51:22;1015;;;-0.73;76.63
64230;BME280;50547;49.498;0.092;2022-12-18T05:53:51;1015;;;-0.55;76.05
64230;BME280;50547;49.498;0.092;2022-12-18T05:56:22;1015;;;-0.60;76.31
64230;BME280;50547;49.498;0.092;2022-12-18T05:58:52;1015;;;-0.65;76.58
64230;BME280;50547;49.498;0.092;2022-12-18T06:01:25;1015;;;-0.79;77.04
64230;BME280;50547;49.498;0.092;2022-12-18T06:03:55;1015;;;-0.97;77.79
64230;BME280;50547;49.498;0.092;2022-12-18T06:06:26;1015;;;-0.92;77.52
64230;BME280;50547;49.498;0.092;2022-12-18T06:08:56;1015;;;-1.08;78.12
64230;BME280;50547;49.498;0.092;2022-12-18T06:11:26;1015;;;-1.04;77.80
64230;BME280;50547;49.498;0.092;2022-12-18T06:13:56;1015;;;-1.18;78.21
64230;BME280;50547;49.498;0.092;2022-12-18T06:16:26;1014;;;-1.19;78.20
64230;BME280;50547;49.498;0.092;2022-12-18T06:18:56;1014;;;-1.27;78.45
64230;BME280;50547;49.498;0.092;2022-12-18T06:21:26;1014;;;-1.29;78.50
64230;BME280;50547;49.498;0.092;2022-12-18T06:23:56;1014;;;-1.32;78.69
64230;BME280;50547;49.498;0.092;2022-12-18T06:26:25;1014;;;-1.23;78.29
64230;BME280;50547;49.498;0.092;2022-12-18T06:28:55;1014;;;-1.31;78.63
64230;BME280;50547;49.498;0.092;2022-12-18T06:31:25;1014;;;-1.37;78.89
64230;BME280;50547;49.498;0.092;2022-12-18T06:33:54;1014;;;-1.29;78.67
64230;BME280;50547;49.498;0.092;2022-12-18T06:36:24;1014;;;-1.29;78.81
64230;BME280;50547;49.498;0.092;2022-12-18T06:38:53;1015;;;-1.22;78.76
64230;BME280;50547;49.498;0.092;2022-12-18T06:41:23;1015;;;-1.15;78.70
64230;BME280;50547;49.498;0.092;2022-12-18T06:43:52;1014;;;-1.09;78.53
64230;BME280;50547;49.498;0.092;2022-12-18T06:46:22;1014;;;-1.18;78.93
64230;BME280;50547;49.498;0.092;2022-12-18T06:48:51;1014;;;-1.13;78.81
64230;BME280;50547;49.498;0.092;2022-12-18T06:51:23;1015;;;-1.19;79.08
64230;BME280;50547;49.498;0.092;2022-12-18T06:53:53;1015;;;-1.24;79.34
64230;BME280;50547;49.498;0.092;2022-12-18T06:56:22;1015;;;-1.23;79.27
64230;BME280;50547;49.498;0.092;2022-12-18T06:58:52;1015;;;-1.31;79.58
64230;BME280;50547;49.498;0.092;2022-12-18T07:01:22;1015;;;-1.26;79.33
64230;BME280;50547;49.498;0.092;2022-12-18T07:03:52;1015;;;-1.14;78.90
64230;BME280;50547;49.498;0.092;2022-12-18T07:06:24;1015;;;-1.06;78.61
64230;BME280;50547;49.498;0.092;2022-12-18T07:08:54;1015;;;-1.14;79.10
64230;BME280;50547;49.498;0.092;2022-12-18T07:11:24;1015;;;-1.18;79.26
64230;BME280;50547;49.498;0.092;2022-12-18T07:13:54;1014;;;-1.17;79.37
64230;BME280;50547;49.498;0.092;2022-12-18T07:16:23;1015;;;-1.25;79.71
64230;BME280;50547;49.498;0.092;2022-12-18T07:18:53;1015;;;-1.11;79.25
64230;BME280;50547;49.498;0.092;2022-12-18T07:21:20;1015;;;-1.00;78.92
64230;BME280;50547;49.498;0.092;2022-12-18T07:23:50;1014;;;-0.93;78.72
